createdAt,value
2017-06-16T00:09:25.755Z,1004.5
2017-06-16T00:19:35.199Z,1004.6
2017-06-16T00:29:44.657Z,1004.7
2017-06-16T00:39:54.128Z,1004.7
2017-06-16T00:50:03.613Z,1004.8
2017-06-16T01:00:13.073Z,1004.8
2017-06-16T01:10:22.534Z,1004.9
2017-06-16T01:20:31.917Z,1004.9
2017-06-16T01:30:41.360Z,1005.1
2017-06-16T01:40:50.804Z,1005.1
2017-06-16T01:51:00.275Z,1005.2
2017-06-16T02:01:09.783Z,1005.1
2017-06-16T02:11:19.255Z,1005.4
2017-06-16T02:21:28.730Z,1005.3
2017-06-16T02:31:38.239Z,1005.5
2017-06-16T02:41:47.767Z,1005.5
2017-06-16T02:51:57.311Z,1005.4
2017-06-16T03:02:06.885Z,1005.5
2017-06-16T03:12:16.450Z,1005.7
2017-06-16T03:22:25.973Z,1005.7
2017-06-16T03:32:35.524Z,1005.9
2017-06-16T03:42:45.004Z,1005.9
2017-06-16T03:52:54.409Z,1006
2017-06-16T04:03:03.748Z,1006.2
2017-06-16T04:13:13.056Z,1006.2
2017-06-16T04:23:22.276Z,1006.3
2017-06-16T04:33:31.490Z,1006.3
2017-06-16T04:43:40.738Z,1006.4
2017-06-16T04:53:49.979Z,1006.3
2017-06-16T05:03:59.166Z,1006.5
2017-06-16T05:14:08.228Z,1006.7
2017-06-16T05:24:17.213Z,1006.7
2017-06-16T05:34:26.226Z,1006.7
2017-06-16T05:44:35.211Z,1006.7
2017-06-16T05:54:44.070Z,1006.7
2017-06-16T06:04:52.860Z,1007
2017-06-16T06:15:01.587Z,1007.2
2017-06-16T06:25:10.323Z,1007.2
2017-06-16T06:35:19.136Z,1007.3
2017-06-16T06:45:28.074Z,1007.5
2017-06-16T06:55:37.031Z,1007.9
2017-06-16T07:05:45.943Z,1007.8
2017-06-16T07:15:54.528Z,1007.9
2017-06-16T07:26:03.134Z,1007.9
2017-06-16T07:36:11.662Z,1007.9
2017-06-16T07:46:19.964Z,1008
2017-06-16T07:56:28.204Z,1008
2017-06-16T08:06:36.351Z,1008
2017-06-16T08:16:44.779Z,1008.2
2017-06-16T08:26:53.520Z,1008.1
2017-06-16T08:37:02.182Z,1008.2
2017-06-16T08:47:10.376Z,1008.5
2017-06-16T08:57:18.356Z,1008.5
2017-06-16T09:07:26.121Z,1008.8
2017-06-16T09:17:34.037Z,1009
2017-06-16T09:27:42.301Z,1009.1
2017-06-16T09:37:50.796Z,1009.1
2017-06-16T09:47:59.523Z,1009.2
2017-06-16T09:58:08.166Z,1009.1
2017-06-16T10:08:16.690Z,1009.3
2017-06-16T10:18:25.301Z,1009.5
2017-06-16T10:28:33.771Z,1009.3
2017-06-16T10:38:42.126Z,1009.8
2017-06-16T10:48:50.717Z,1009.8
2017-06-16T10:58:59.291Z,1009.7
2017-06-16T11:09:07.639Z,1009.8
2017-06-16T11:19:16.034Z,1009.9
2017-06-16T11:29:24.521Z,1010
2017-06-16T11:39:33.043Z,1009.9
2017-06-16T11:49:41.742Z,1010.3
2017-06-16T11:59:50.463Z,1010.2
2017-06-16T12:09:59.072Z,1010.2
2017-06-16T12:20:07.746Z,1010.3
2017-06-16T12:30:16.522Z,1010.5
2017-06-16T12:40:25.219Z,1010.5
2017-06-16T12:50:33.711Z,1010.5
2017-06-16T13:00:42.098Z,1010.6
2017-06-16T13:10:50.457Z,1010.7
2017-06-16T13:20:58.832Z,1010.4
2017-06-16T13:31:07.435Z,1010.7
2017-06-16T13:41:16.092Z,1010.9
2017-06-16T13:51:24.684Z,1010.8
2017-06-16T14:01:33.120Z,1010.9
2017-06-16T14:11:41.406Z,1011.1
2017-06-16T14:21:49.730Z,1010.9
2017-06-16T14:31:58.176Z,1011.1
2017-06-16T14:42:06.643Z,1011
2017-06-16T14:52:15.020Z,1011
2017-06-16T15:02:23.599Z,1011.2
2017-06-16T15:12:32.446Z,1011.6
2017-06-16T15:22:41.386Z,1011.7
2017-06-16T15:32:50.244Z,1011.6
2017-06-16T15:42:58.987Z,1012
2017-06-16T15:53:07.859Z,1011.6
2017-06-16T16:03:16.874Z,1011.6
2017-06-16T16:13:25.877Z,1011.9
2017-06-16T16:23:34.662Z,1011.7
2017-06-16T16:33:43.387Z,1011.9
2017-06-16T16:43:52.338Z,1011.9
2017-06-16T16:54:01.310Z,1012.1
2017-06-16T17:04:10.281Z,1012.3
2017-06-16T17:14:19.291Z,1012.1
2017-06-16T17:24:28.369Z,1012.4
2017-06-16T17:34:37.500Z,1012.2
2017-06-16T17:44:46.545Z,1012.4
2017-06-16T17:54:55.639Z,1012.5
2017-06-16T18:05:04.750Z,1012.6
2017-06-16T18:15:13.812Z,1012.7
2017-06-16T18:25:22.860Z,1012.7
2017-06-16T18:35:32.016Z,1012.6
2017-06-16T18:45:41.219Z,1012.7
2017-06-16T18:55:50.532Z,1012.8
2017-06-16T19:05:59.883Z,1012.9
2017-06-16T19:16:09.278Z,1013
2017-06-16T19:26:18.732Z,1013.1
2017-06-16T19:36:28.236Z,1013.3
2017-06-16T19:46:37.730Z,1013.3
2017-06-16T19:56:47.259Z,1013.3
2017-06-16T20:06:56.793Z,1013.4
2017-06-16T20:17:06.340Z,1013.6
2017-06-16T20:27:15.897Z,1013.8
2017-06-16T20:37:25.492Z,1013.8
2017-06-16T20:47:35.139Z,1014
2017-06-16T20:57:44.779Z,1013.9
2017-06-16T21:07:54.713Z,1013.9
2017-06-16T21:18:04.227Z,1014
2017-06-16T21:28:13.960Z,1014.1
2017-06-16T21:38:23.664Z,1014.1
2017-06-16T21:48:33.416Z,1014.3
2017-06-16T21:58:43.217Z,1014.2
2017-06-16T22:08:53.077Z,1014.2
2017-06-16T22:19:02.951Z,1014
2017-06-16T22:29:12.875Z,1014.2
2017-06-16T22:39:22.789Z,1014.2
2017-06-16T22:49:32.708Z,1014.2
2017-06-16T22:59:42.640Z,1014.3
2017-06-16T23:09:52.601Z,1014.2
2017-06-16T23:20:02.574Z,1014.3
2017-06-16T23:30:12.597Z,1014.2
2017-06-16T23:40:22.687Z,1014.2
2017-06-16T23:50:32.760Z,1014.2
